Ana Sayfa
METAR-TAF:

METAR-TAF

Havaalanları :

Çengdu Shuangliu Uluslararası Havalimanı

Çengdu, Çin

Enlem: 30-40N, Boylam: 104-01E, yükseklik: 508 m

Güncel hava durumu gözlemi

Rapor saat 02:00 UTC de 1 saat ve 9 dakika önce yapıldı.
Rüzgar güneydan 4 kt, doğu/güneydoğu ve güneybatı arasında değişken
Sıcaklık 10°C
Nem 82%
Basınç 1027 hPa
Görüş mesafesi 10 km veya daha fazla
1500 m altında bulut yok ve kümülonimbus yok

METAR: ZUUU 190200Z 17002MPS 120V230 CAVOK 10/07 Q1027 NOSIG

Saat: 11:09 (03:09 UTC)

Tahmin

Rapor saat 20:01 UTC de 7 saat ve 8 dakika önce yapıldı.
Ayın 19'si saat 00 UTC'den ayın 19'si saat 24 UTC'ye kadar geçerli Tahmin
Rüzgar güney/güneybatıdan 6 kt
Görüş mesafesi: 5000 m
5000 ft yükseklikte parçalı bulutlu
Pus

TAF: ZUUU 182001Z 1900/1924 20003MPS 5000 BR SCT050 TX12/1907Z TN08/1900Z

4.000'den fazla havaalanı için hava durumu gözlemleri ve tahminleri (METAR ve TAF raporları).

Kullanılabilir istasyonlar harita üzerinde sarı ve kırmızı noktalarla gösterilir.

İstasyonun adını görmek için fareyi noktanın üzerinde gezdirin.

Sonrasında hava gözlem ve tahminlerini görmek için tıklayın.

Haritayı değiştirmek için: yaklaştırmak için siyah artı işaretli yeşil düğmeye ve uzaklaştırmak için de eksi işaretli düğmeye hızla tıklayın; bitişik haritalar için yeşil okları kullanın.


METAR-TAF: